Time;durP1;ratioP1;P1;durP2;ratioP2;P2;SDS_P1;SDS_P2;PMS_P1;PMS_P2;Temp;Humidity;BMP_temperature;BMP_pressure;BME280_temperature;BME280_humidity;BME280_pressure;Samples;Min_cycle;Max_cycle;Signal;HPM_P1;HPM_P2
2024/01/22 00:00:13;;;;;;;11.13;5.60;;;6.00;99.90;;;;;;5066209;28;20498;-65
2024/01/22 00:02:39;;;;;;;12.38;5.45;;;6.00;99.90;;;;;;5052365;28;20079;-64
2024/01/22 00:05:05;;;;;;;7.10;5.20;;;6.00;99.90;;;;;;5049079;28;20135;-64
2024/01/22 00:07:32;;;;;;;9.10;5.80;;;6.00;99.90;;;;;;5055562;28;20120;-64
2024/01/22 00:09:58;;;;;;;10.95;6.03;;;6.00;99.90;;;;;;5050941;28;20454;-64
2024/01/22 00:12:24;;;;;;;8.63;5.35;;;6.10;99.90;;;;;;5053522;28;20052;-64
2024/01/22 00:14:49;;;;;;;12.38;5.25;;;6.00;99.90;;;;;;5078763;28;20037;-64
2024/01/22 00:17:15;;;;;;;12.30;5.68;;;6.10;99.90;;;;;;5034650;28;20028;-63
2024/01/22 00:19:41;;;;;;;8.75;5.45;;;6.10;99.90;;;;;;5054377;28;20486;-64
2024/01/22 00:22:06;;;;;;;9.25;5.30;;;6.10;99.90;;;;;;5056217;28;20120;-64
2024/01/22 00:24:32;;;;;;;9.18;5.82;;;6.10;99.90;;;;;;5065674;28;20040;-65
2024/01/22 00:26:58;;;;;;;8.57;5.47;;;6.10;99.90;;;;;;5037108;28;20562;-63
2024/01/22 00:29:24;;;;;;;8.32;5.10;;;;;;;;;;5075847;28;20554;-64
2024/01/22 00:31:50;;;;;;;8.60;5.53;;;;;;;;;;5047735;28;20083;-64
2024/01/22 00:34:16;;;;;;;10.88;5.85;;;6.10;99.90;;;;;;5065137;28;20040;-64
2024/01/22 00:36:41;;;;;;;8.45;4.88;;;6.20;99.90;;;;;;5061525;28;20170;-63
2024/01/22 00:39:08;;;;;;;7.65;5.45;;;;;;;;;;5066015;28;20554;-64
2024/01/22 00:41:34;;;;;;;8.55;5.43;;;;;;;;;;5061081;28;20083;-64
2024/01/22 00:44:00;;;;;;;9.27;5.65;;;;;;;;;;5065819;28;20473;-63
2024/01/22 00:46:26;;;;;;;8.35;5.30;;;;;;;;;;5068040;28;20024;-64
2024/01/22 00:48:52;;;;;;;10.90;5.13;;;;;;;;;;5068758;28;20036;-63
2024/01/22 00:51:18;;;;;;;9.75;5.07;;;;;;;;;;5062484;28;20040;-65
2024/01/22 00:53:44;;;;;;;10.95;5.72;;;;;;;;;;5050159;28;20060;-64
2024/01/22 00:56:10;;;;;;;7.15;5.13;;;6.20;99.90;;;;;;5051663;28;20079;-64
2024/01/22 00:58:36;;;;;;;7.65;5.28;;;6.30;99.90;;;;;;5064258;28;20060;-65
2024/01/22 01:01:02;;;;;;;9.98;5.65;;;6.30;99.90;;;;;;5061965;28;20041;-64
2024/01/22 01:03:28;;;;;;;9.18;5.15;;;6.30;99.90;;;;;;5067375;28;20037;-63
2024/01/22 01:05:53;;;;;;;7.57;5.00;;;6.30;99.90;;;;;;5077440;28;20037;-63
2024/01/22 01:08:19;;;;;;;9.05;5.18;;;6.40;99.90;;;;;;5068582;28;20043;-63
2024/01/22 01:10:45;;;;;;;7.70;5.50;;;6.40;99.90;;;;;;5066330;28;20646;-64
2024/01/22 01:13:10;;;;;;;9.50;5.95;;;6.40;99.90;;;;;;5065642;28;20047;-63
2024/01/22 01:15:36;;;;;;;11.55;6.70;;;6.40;99.90;;;;;;5061859;28;20094;-64
2024/01/22 01:18:02;;;;;;;10.13;6.55;;;;;;;;;;5064547;28;20052;-64
2024/01/22 01:20:28;;;;;;;10.02;4.90;;;;;;;;;;5048858;28;20041;-63
2024/01/22 01:22:54;;;;;;;7.65;5.65;;;;;;;;;;5070099;28;20044;-64
2024/01/22 01:25:20;;;;;;;8.32;6.03;;;6.40;99.90;;;;;;5067061;28;20032;-63
2024/01/22 01:27:46;;;;;;;10.63;5.00;;;;;;;;;;5066651;28;20043;-63
2024/01/22 01:30:12;;;;;;;8.32;5.03;;;;;;;;;;5049817;28;20378;-64
2024/01/22 01:32:38;;;;;;;9.70;6.00;;;;;;;;;;5048190;28;20043;-64
2024/01/22 01:35:08;;;;;;;10.10;5.40;;;;;;;;;;5064089;28;20131;-64
2024/01/22 01:37:35;;;;;;;7.30;4.93;;;6.50;99.90;;;;;;5068301;28;20060;-64
2024/01/22 01:40:01;;;;;;;11.65;5.22;;;6.60;99.90;;;;;;5064774;28;20052;-63
2024/01/22 01:42:27;;;;;;;12.07;5.78;;;6.60;99.90;;;;;;5066087;28;20367;-63
2024/01/22 01:44:53;;;;;;;8.10;5.30;;;6.60;99.90;;;;;;5067759;28;20473;-63
2024/01/22 01:47:19;;;;;;;9.88;6.15;;;6.70;99.90;;;;;;5048250;28;20089;-64
2024/01/22 01:49:46;;;;;;;8.38;5.53;;;6.70;99.90;;;;;;5056835;28;20109;-64
2024/01/22 01:52:13;;;;;;;10.20;5.63;;;6.70;99.90;;;;;;5081957;28;20089;-64
2024/01/22 01:54:40;;;;;;;9.70;6.00;;;6.70;99.90;;;;;;5068866;28;20044;-63
2024/01/22 01:57:08;;;;;;;8.15;5.88;;;6.80;99.90;;;;;;5053743;28;20041;-64
2024/01/22 01:59:42;;;;;;;7.80;5.53;;;6.80;99.90;;;;;;5052034;28;20041;-64
2024/01/22 02:02:08;;;;;;;17.55;6.70;;;6.80;99.90;;;;;;5054954;28;20053;-65
2024/01/22 02:04:33;;;;;;;9.63;5.65;;;6.80;99.90;;;;;;5004663;28;20205;-63
2024/01/22 02:07:00;;;;;;;12.82;5.55;;;;;;;;;;5076872;28;20314;-64
2024/01/22 02:09:46;;;;;;;11.40;5.97;;;6.90;99.90;;;;;;5053792;28;20063;-64
2024/01/22 02:12:12;;;;;;;10.75;5.97;;;;;;;;;;5065017;28;20076;-64
2024/01/22 02:14:38;;;;;;;10.50;5.60;;;7.00;99.90;;;;;;5067395;28;20098;-64
2024/01/22 02:17:04;;;;;;;9.68;5.38;;;;;;;;;;5066384;28;20132;-64
2024/01/22 02:19:31;;;;;;;11.30;6.07;;;7.00;99.90;;;;;;5060664;28;20191;-64
2024/01/22 02:21:57;;;;;;;7.68;5.13;;;7.10;99.90;;;;;;5067630;28;20267;-65
2024/01/22 02:24:23;;;;;;;8.18;5.28;;;7.00;99.90;;;;;;5071397;28;20048;-64
2024/01/22 02:26:52;;;;;;;10.20;5.82;;;7.10;99.90;;;;;;5068403;28;20033;-64
2024/01/22 02:29:17;;;;;;;10.77;5.72;;;7.20;99.90;;;;;;5066569;28;20037;-63
2024/01/22 02:31:45;;;;;;;11.85;6.65;;;7.20;99.90;;;;;;5066102;28;20290;-65
2024/01/22 02:34:11;;;;;;;9.52;5.53;;;7.10;99.90;;;;;;5045642;28;20112;-64
2024/01/22 02:36:37;;;;;;;13.30;6.82;;;7.20;99.90;;;;;;5060939;28;20120;-63
2024/01/22 02:39:03;;;;;;;10.77;4.97;;;7.20;99.90;;;;;;5067453;28;20445;-65
2024/01/22 02:41:29;;;;;;;10.32;5.13;;;7.20;99.90;;;;;;5052604;28;20052;-64
2024/01/22 02:43:54;;;;;;;8.55;5.15;;;7.30;99.90;;;;;;5068880;28;20100;-64
2024/01/22 02:46:20;;;;;;;7.38;4.85;;;7.30;99.90;;;;;;5057874;28;20039;-64
2024/01/22 02:48:46;;;;;;;8.98;5.50;;;7.30;99.90;;;;;;5067884;28;20290;-64
2024/01/22 02:51:12;;;;;;;13.45;5.82;;;7.30;99.90;;;;;;5054396;28;20037;-63
2024/01/22 02:53:38;;;;;;;5.63;4.93;;;7.40;99.90;;;;;;5052881;28;20452;-63
2024/01/22 02:56:04;;;;;;;7.25;5.18;;;7.40;99.90;;;;;;5055841;28;20106;-64
2024/01/22 02:58:31;;;;;;;8.95;5.00;;;7.40;99.90;;;;;;5058957;28;20514;-64
2024/01/22 03:00:57;;;;;;;9.00;5.60;;;7.40;99.90;;;;;;5035737;28;20119;-64
2024/01/22 03:03:23;;;;;;;9.90;4.97;;;7.40;99.90;;;;;;5059532;28;20048;-64
2024/01/22 03:05:49;;;;;;;10.07;4.90;;;7.40;99.90;;;;;;5036510;28;20077;-64
2024/01/22 03:08:15;;;;;;;5.55;4.60;;;7.40;99.90;;;;;;5059631;28;20043;-64
2024/01/22 03:10:41;;;;;;;6.07;4.18;;;7.40;99.90;;;;;;5054930;28;20050;-64
2024/01/22 03:13:07;;;;;;;7.53;4.75;;;7.50;99.90;;;;;;5067235;28;20118;-63
2024/01/22 03:15:33;;;;;;;7.90;4.25;;;7.40;99.90;;;;;;5055373;28;20029;-64
2024/01/22 03:17:58;;;;;;;6.78;4.32;;;7.40;99.90;;;;;;5057702;28;20037;-64
2024/01/22 03:20:24;;;;;;;5.57;4.05;;;7.50;99.90;;;;;;5034504;28;20079;-64
2024/01/22 03:22:50;;;;;;;6.85;4.50;;;7.50;99.90;;;;;;5075283;28;20058;-64
2024/01/22 03:25:15;;;;;;;8.60;4.70;;;7.50;99.90;;;;;;5034506;28;20534;-64
2024/01/22 03:27:41;;;;;;;9.63;4.18;;;7.50;99.90;;;;;;5065593;28;20048;-64
2024/01/22 03:30:08;;;;;;;7.05;4.40;;;7.60;99.90;;;;;;5048918;28;20045;-64
2024/01/22 03:32:34;;;;;;;6.53;3.72;;;7.60;99.90;;;;;;5048361;28;20048;-63
2024/01/22 03:34:59;;;;;;;6.32;3.67;;;7.60;99.90;;;;;;5053652;28;20049;-63
2024/01/22 03:37:25;;;;;;;6.90;4.10;;;7.60;99.90;;;;;;5042330;28;20040;-63
2024/01/22 03:39:51;;;;;;;6.65;4.05;;;7.60;99.90;;;;;;5043546;28;20053;-63
2024/01/22 03:42:17;;;;;;;5.97;3.72;;;7.60;99.90;;;;;;5031761;28;20244;-63
2024/01/22 03:44:43;;;;;;;7.30;3.65;;;7.60;99.90;;;;;;5066014;28;20060;-63
2024/01/22 03:47:09;;;;;;;5.88;3.70;;;7.70;99.90;;;;;;5047575;28;20033;-63
2024/01/22 03:49:34;;;;;;;6.63;3.30;;;7.70;99.90;;;;;;5065431;28;20029;-64
2024/01/22 03:52:00;;;;;;;7.35;4.45;;;7.70;99.90;;;;;;5062209;28;20044;-64
2024/01/22 03:54:26;;;;;;;4.90;3.03;;;7.70;99.90;;;;;;5063466;28;20033;-63
2024/01/22 03:56:51;;;;;;;4.88;3.42;;;7.70;99.90;;;;;;5065247;28;20595;-62
2024/01/22 03:59:18;;;;;;;5.50;2.85;;;7.80;99.90;;;;;;5059243;28;20115;-62
2024/01/22 04:01:44;;;;;;;5.63;3.65;;;7.80;99.90;;;;;;5062859;28;20140;-62
2024/01/22 04:04:12;;;;;;;3.97;2.40;;;7.80;99.90;;;;;;5059287;28;20133;-62
2024/01/22 04:06:37;;;;;;;3.75;3.03;;;7.80;99.90;;;;;;5056185;28;20083;-63
2024/01/22 04:09:03;;;;;;;3.15;2.28;;;7.80;99.90;;;;;;5063510;28;20087;-63
2024/01/22 04:11:29;;;;;;;7.10;2.42;;;7.80;99.90;;;;;;5065602;28;20114;-63
2024/01/22 04:13:55;;;;;;;5.18;2.38;;;7.80;99.90;;;;;;5066956;28;20048;-64
2024/01/22 04:16:20;;;;;;;5.10;2.88;;;7.80;99.90;;;;;;5053806;28;20041;-63
2024/01/22 04:18:46;;;;;;;4.75;3.40;;;7.80;99.90;;;;;;5065268;28;20484;-62
2024/01/22 04:21:12;;;;;;;3.28;2.30;;;7.80;99.90;;;;;;5070896;28;20045;-62
2024/01/22 04:23:38;;;;;;;3.72;2.42;;;7.80;99.90;;;;;;5071028;28;20044;-62
2024/01/22 04:26:05;;;;;;;5.85;2.88;;;7.80;99.90;;;;;;5040038;28;20044;-63
2024/01/22 04:28:31;;;;;;;5.00;2.33;;;7.90;99.90;;;;;;5070006;28;20374;-62
2024/01/22 04:30:56;;;;;;;3.17;2.10;;;7.90;99.90;;;;;;5069847;28;20527;-62
2024/01/22 04:33:22;;;;;;;3.75;2.33;;;7.90;99.90;;;;;;5069332;28;20109;-63
2024/01/22 04:35:49;;;;;;;3.95;2.20;;;7.90;99.90;;;;;;5053113;28;20059;-62
2024/01/22 04:38:15;;;;;;;3.60;2.35;;;7.90;99.90;;;;;;5041579;28;20059;-63
2024/01/22 04:40:41;;;;;;;6.78;2.33;;;7.90;99.90;;;;;;5068831;28;20494;-63
2024/01/22 04:43:07;;;;;;;4.00;1.90;;;7.90;99.90;;;;;;5068199;28;20185;-62
2024/01/22 04:45:33;;;;;;;4.70;2.42;;;7.90;99.90;;;;;;5067242;28;20493;-62
2024/01/22 04:48:05;;;;;;;4.90;2.67;;;7.90;99.90;;;;;;5053845;28;20064;-62
2024/01/22 04:50:31;;;;;;;4.63;2.40;;;8.00;99.90;;;;;;5059897;28;20041;-62
2024/01/22 04:52:57;;;;;;;7.13;2.65;;;8.00;99.90;;;;;;5068206;28;20045;-63
2024/01/22 04:55:22;;;;;;;4.40;2.33;;;7.90;99.90;;;;;;5054693;28;20048;-63
2024/01/22 04:57:48;;;;;;;3.78;2.30;;;8.00;99.90;;;;;;5068214;28;20033;-62
2024/01/22 05:00:14;;;;;;;7.85;2.97;;;;;;;;;;5060247;28;20055;-62
2024/01/22 05:02:40;;;;;;;4.20;2.78;;;8.00;99.90;;;;;;5070216;28;20506;-62
2024/01/22 05:05:06;;;;;;;3.78;2.35;;;8.00;99.90;;;;;;5067545;28;20033;-63
2024/01/22 05:07:32;;;;;;;3.67;2.17;;;8.00;99.90;;;;;;5065900;28;20045;-64
2024/01/22 05:10:02;;;;;;;3.30;2.05;;;8.00;99.90;;;;;;5070409;28;20137;-63
2024/01/22 05:12:28;;;;;;;3.58;1.98;;;8.00;99.90;;;;;;5066094;28;20055;-63
2024/01/22 05:14:53;;;;;;;2.08;1.77;;;8.00;99.90;;;;;;5069207;28;20464;-62
2024/01/22 05:17:19;;;;;;;2.78;2.10;;;8.00;99.90;;;;;;5052214;28;20052;-63
2024/01/22 05:19:45;;;;;;;2.88;2.15;;;8.00;99.90;;;;;;5069776;28;20405;-62
2024/01/22 05:22:11;;;;;;;3.00;1.98;;;8.00;99.90;;;;;;5070192;28;20094;-62
2024/01/22 05:24:37;;;;;;;4.20;2.17;;;8.00;99.90;;;;;;5067773;28;20040;-63
2024/01/22 05:27:04;;;;;;;1.70;1.55;;;8.00;99.90;;;;;;5070534;28;20412;-62
2024/01/22 05:29:30;;;;;;;6.78;2.28;;;8.00;99.90;;;;;;5063432;28;20404;-63
2024/01/22 05:31:55;;;;;;;3.10;2.03;;;8.00;99.90;;;;;;5048588;28;20041;-63
2024/01/22 05:34:21;;;;;;;2.63;2.05;;;8.00;99.90;;;;;;5068213;28;20048;-62
2024/01/22 05:36:47;;;;;;;3.63;1.95;;;8.00;99.90;;;;;;5092330;28;20044;-63
2024/01/22 05:39:13;;;;;;;1.98;1.55;;;8.00;99.90;;;;;;5065971;28;20139;-63
2024/01/22 05:41:40;;;;;;;3.38;1.83;;;8.00;99.90;;;;;;5047424;28;20060;-63
2024/01/22 05:44:06;;;;;;;2.53;1.90;;;8.00;99.90;;;;;;5075828;28;20084;-62
2024/01/22 05:46:34;;;;;;;2.88;1.98;;;8.00;99.90;;;;;;5099209;28;20505;-63
2024/01/22 05:49:00;;;;;;;2.45;1.60;;;8.00;99.90;;;;;;5062358;28;20044;-63
2024/01/22 05:51:26;;;;;;;4.68;1.90;;;8.00;99.90;;;;;;5063092;28;20037;-65
2024/01/22 05:53:51;;;;;;;4.25;1.70;;;8.00;99.90;;;;;;5050977;28;20135;-62
2024/01/22 05:56:27;;;;;;;3.13;2.03;;;8.00;99.90;;;;;;5064610;28;20425;-63
2024/01/22 05:58:54;;;;;;;3.20;1.70;;;8.00;99.90;;;;;;5062664;28;20044;-63
2024/01/22 06:01:27;;;;;;;2.17;1.70;;;8.00;99.90;;;;;;5059978;28;20498;-63
2024/01/22 06:03:53;;;;;;;6.10;2.13;;;8.00;99.90;;;;;;5051728;28;20040;-63
2024/01/22 06:06:19;;;;;;;2.58;1.52;;;8.00;99.90;;;;;;5059173;28;20051;-63
2024/01/22 06:08:47;;;;;;;3.10;2.05;;;8.00;99.90;;;;;;5058790;28;20041;-65
2024/01/22 06:11:14;;;;;;;4.00;1.73;;;8.00;99.90;;;;;;5051740;28;20064;-66
2024/01/22 06:13:42;;;;;;;3.40;1.98;;;8.00;99.90;;;;;;5063679;28;20044;-63
2024/01/22 06:16:12;;;;;;;2.20;1.55;;;8.00;99.90;;;;;;5057087;28;20045;-63
2024/01/22 06:18:41;;;;;;;6.53;2.30;;;8.00;99.90;;;;;;5061796;28;20077;-63
2024/01/22 06:21:11;;;;;;;7.30;2.03;;;8.00;99.90;;;;;;5058633;28;20059;-62
2024/01/22 06:23:37;;;;;;;4.45;1.40;;;8.00;99.90;;;;;;5053459;28;20049;-64
2024/01/22 06:26:03;;;;;;;5.13;2.20;;;8.00;99.90;;;;;;5067011;28;20104;-62
2024/01/22 06:28:32;;;;;;;7.65;2.78;;;8.00;99.90;;;;;;5064523;28;20498;-62
2024/01/22 06:30:58;;;;;;;5.40;2.60;;;8.10;99.90;;;;;;5053303;28;20045;-61
2024/01/22 06:33:24;;;;;;;8.48;3.13;;;8.00;99.90;;;;;;5054542;28;20395;-63
2024/01/22 06:35:55;;;;;;;12.00;3.60;;;8.10;99.90;;;;;;5058570;28;20051;-64
2024/01/22 06:38:21;;;;;;;9.73;3.67;;;8.00;99.90;;;;;;5055215;28;20044;-62
2024/01/22 06:40:47;;;;;;;17.30;4.72;;;8.10;99.90;;;;;;5063100;28;20114;-63
2024/01/22 06:43:13;;;;;;;22.38;4.93;;;8.10;99.90;;;;;;5047039;28;20044;-63
2024/01/22 06:45:40;;;;;;;11.45;3.90;;;8.10;99.90;;;;;;5066354;28;20045;-63
2024/01/22 06:48:06;;;;;;;14.70;5.53;;;8.10;99.90;;;;;;5061731;28;20032;-63
2024/01/22 06:50:31;;;;;;;19.23;5.82;;;8.10;99.90;;;;;;5047052;28;20347;-63
2024/01/22 06:52:57;;;;;;;13.48;5.43;;;8.10;99.90;;;;;;5054377;28;20055;-63
2024/01/22 06:55:23;;;;;;;11.90;5.20;;;8.20;99.90;;;;;;5059199;28;20043;-62
2024/01/22 06:57:52;;;;;;;13.13;4.82;;;8.10;99.90;;;;;;5053376;28;20088;-62
2024/01/22 07:00:19;;;;;;;13.75;5.25;;;8.10;99.90;;;;;;5054555;28;20049;-62
2024/01/22 07:02:45;;;;;;;19.00;5.75;;;8.20;99.90;;;;;;5044356;28;20036;-63
2024/01/22 07:05:12;;;;;;;19.90;6.07;;;8.20;99.90;;;;;;5058146;28;20048;-63
2024/01/22 07:07:38;;;;;;;20.20;7.47;;;8.20;99.90;;;;;;5036108;28;20103;-63
2024/01/22 07:10:05;;;;;;;19.27;6.82;;;8.20;99.90;;;;;;5062770;28;20040;-63
2024/01/22 07:12:32;;;;;;;29.40;8.90;;;8.20;99.90;;;;;;5057860;28;20041;-63
2024/01/22 07:14:57;;;;;;;16.95;6.88;;;8.20;99.90;;;;;;5056032;28;20163;-64
2024/01/22 07:17:23;;;;;;;23.65;7.05;;;8.20;99.90;;;;;;5053992;28;20066;-63
2024/01/22 07:19:49;;;;;;;26.08;8.50;;;8.30;99.90;;;;;;5051226;28;20036;-62
2024/01/22 07:22:15;;;;;;;23.40;6.82;;;8.30;99.90;;;;;;5054840;28;20263;-63
2024/01/22 07:24:40;;;;;;;18.38;7.25;;;8.30;99.90;;;;;;5055117;28;20045;-63
2024/01/22 07:27:07;;;;;;;28.10;8.18;;;8.30;99.90;;;;;;5061555;28;20121;-63
2024/01/22 07:29:34;;;;;;;23.08;7.82;;;8.30;99.90;;;;;;5035182;28;20136;-62
2024/01/22 07:32:00;;;;;;;21.00;8.48;;;8.30;99.90;;;;;;5063435;28;20036;-63
2024/01/22 07:34:26;;;;;;;35.83;10.70;;;8.30;99.90;;;;;;5059797;28;20816;-63
2024/01/22 07:36:52;;;;;;;26.95;9.55;;;8.30;99.90;;;;;;5041027;28;20044;-63
2024/01/22 07:39:19;;;;;;;22.80;7.95;;;8.30;99.90;;;;;;5065002;28;20123;-62
2024/01/22 07:41:45;;;;;;;21.35;9.05;;;8.30;99.90;;;;;;5056493;28;20053;-63
2024/01/22 07:44:11;;;;;;;21.90;7.95;;;8.30;99.90;;;;;;5045346;28;20170;-63
2024/01/22 07:46:38;;;;;;;17.90;7.72;;;8.30;99.90;;;;;;5064758;28;20116;-62
2024/01/22 07:49:04;;;;;;;20.38;6.90;;;;;;;;;;5061813;28;20383;-63
2024/01/22 07:51:30;;;;;;;19.75;7.45;;;8.40;99.90;;;;;;5050784;28;20086;-63
2024/01/22 07:53:55;;;;;;;19.55;7.00;;;8.30;99.90;;;;;;5074692;28;20044;-62
2024/01/22 07:56:22;;;;;;;16.27;7.28;;;8.40;99.90;;;;;;5063331;28;20136;-63
2024/01/22 07:58:48;;;;;;;16.88;5.60;;;8.30;99.90;;;;;;5059907;28;20037;-62
2024/01/22 08:01:14;;;;;;;22.50;6.18;;;8.30;99.90;;;;;;5068705;28;20453;-62
2024/01/22 08:03:40;;;;;;;22.27;7.20;;;8.30;99.90;;;;;;5066047;28;20056;-63
2024/01/22 08:06:05;;;;;;;21.20;6.22;;;8.30;99.90;;;;;;5057767;28;20032;-62
2024/01/22 08:08:31;;;;;;;13.48;5.75;;;8.30;99.90;;;;;;5069212;28;20032;-62
2024/01/22 08:10:57;;;;;;;16.80;6.30;;;8.30;99.90;;;;;;5067369;28;20251;-62
2024/01/22 08:13:23;;;;;;;18.02;6.35;;;8.30;99.90;;;;;;5065125;28;20051;-62
2024/01/22 08:15:49;;;;;;;26.15;7.30;;;8.30;99.90;;;;;;5063741;28;20033;-62
2024/01/22 08:18:16;;;;;;;15.90;7.00;;;8.40;99.90;;;;;;5046222;28;20041;-63
2024/01/22 08:20:42;;;;;;;17.70;6.57;;;8.40;99.90;;;;;;5045525;28;20182;-63
2024/01/22 08:23:08;;;;;;;21.98;7.85;;;8.30;99.90;;;;;;5064253;28;20033;-62
2024/01/22 08:25:34;;;;;;;15.98;7.43;;;8.30;99.90;;;;;;5059558;28;20044;-63
2024/01/22 08:28:00;;;;;;;21.77;7.43;;;8.40;99.90;;;;;;5066038;28;20040;-62
2024/01/22 08:30:27;;;;;;;26.23;7.88;;;8.30;99.90;;;;;;5064943;28;20048;-62
2024/01/22 08:32:53;;;;;;;20.52;6.57;;;8.30;99.90;;;;;;5051376;28;20047;-63
2024/01/22 08:35:20;;;;;;;18.33;7.45;;;8.30;99.90;;;;;;5061633;28;20032;-62
2024/01/22 08:37:54;;;;;;;17.15;6.10;;;8.30;99.90;;;;;;5064809;28;20418;-63
2024/01/22 08:40:23;;;;;;;28.33;8.00;;;8.30;99.90;;;;;;5059862;28;20053;-62
2024/01/22 08:42:54;;;;;;;17.75;6.75;;;8.30;99.90;;;;;;5064682;28;20044;-62
2024/01/22 08:45:21;;;;;;;20.17;8.52;;;8.30;99.90;;;;;;5082208;28;20041;-63
2024/01/22 08:47:49;;;;;;;28.83;9.30;;;8.30;99.90;;;;;;5066709;28;20115;-63
2024/01/22 08:50:17;;;;;;;25.40;9.25;;;8.30;99.90;;;;;;5069219;28;20800;-62
2024/01/22 08:52:45;;;;;;;38.65;11.27;;;8.30;99.90;;;;;;5068854;28;20036;-64
2024/01/22 08:55:11;;;;;;;33.80;11.70;;;8.30;99.90;;;;;;5067822;28;20056;-63
2024/01/22 08:57:37;;;;;;;37.85;12.98;;;8.30;99.90;;;;;;5065940;28;20043;-63
2024/01/22 09:00:10;;;;;;;37.17;12.32;;;8.30;99.90;;;;;;5068908;28;20048;-63
2024/01/22 09:02:40;;;;;;;36.08;13.02;;;8.30;99.90;;;;;;5066521;28;20079;-63
2024/01/22 09:05:10;;;;;;;29.25;11.00;;;8.30;99.90;;;;;;5070380;28;20059;-63
2024/01/22 09:07:37;;;;;;;28.98;10.05;;;8.30;99.90;;;;;;5067874;28;20040;-63
2024/01/22 09:10:07;;;;;;;27.25;10.35;;;8.30;99.90;;;;;;5071345;28;20036;-63
2024/01/22 09:12:37;;;;;;;46.63;12.60;;;8.30;99.90;;;;;;5065031;28;20408;-63
2024/01/22 09:15:05;;;;;;;39.85;13.10;;;8.30;99.90;;;;;;5068533;28;20032;-61
2024/01/22 09:17:32;;;;;;;38.53;12.38;;;8.40;99.90;;;;;;5069800;28;20032;-63
2024/01/22 09:19:58;;;;;;;37.40;12.05;;;8.40;99.90;;;;;;5068859;28;20041;-63
2024/01/22 09:22:31;;;;;;;37.05;12.40;;;;;;;;;;5068878;28;20044;-63
2024/01/22 09:24:57;;;;;;;23.15;9.88;;;8.40;99.90;;;;;;5067652;28;20036;-63
2024/01/22 09:27:23;;;;;;;34.85;10.38;;;8.40;99.90;;;;;;5065731;28;20529;-63
2024/01/22 09:29:49;;;;;;;28.55;11.18;;;8.50;99.90;;;;;;5067818;28;20098;-63
2024/01/22 09:32:15;;;;;;;33.20;9.85;;;8.50;99.90;;;;;;5069919;28;20040;-63
2024/01/22 09:34:41;;;;;;;33.28;10.20;;;8.50;99.90;;;;;;5069906;28;20036;-63
2024/01/22 09:37:07;;;;;;;31.20;10.00;;;8.50;99.90;;;;;;5067894;28;20054;-63
2024/01/22 09:39:32;;;;;;;21.00;8.77;;;8.60;99.90;;;;;;5065565;28;20064;-63
2024/01/22 09:42:02;;;;;;;26.65;9.13;;;8.60;99.90;;;;;;5062187;28;20049;-63
2024/01/22 09:44:29;;;;;;;23.25;10.57;;;8.70;99.90;;;;;;5068699;28;20036;-63
2024/01/22 09:46:56;;;;;;;32.45;9.55;;;8.80;99.90;;;;;;5068156;28;20116;-63
2024/01/22 09:49:23;;;;;;;21.65;7.65;;;8.80;99.90;;;;;;5064483;28;20489;-63
2024/01/22 09:51:50;;;;;;;36.63;10.73;;;8.90;99.90;;;;;;5066713;28;20139;-63
2024/01/22 09:54:18;;;;;;;31.05;9.90;;;9.00;99.90;;;;;;5055341;28;20123;-63
2024/01/22 09:56:52;;;;;;;35.05;9.70;;;9.10;99.90;;;;;;5074994;28;20188;-63
2024/01/22 09:59:22;;;;;;;35.33;9.23;;;9.30;99.90;;;;;;5060820;28;20040;-63
2024/01/22 10:01:49;;;;;;;27.33;10.18;;;9.40;99.90;;;;;;5058008;28;20041;-64
2024/01/22 10:04:16;;;;;;;32.92;8.23;;;9.50;99.90;;;;;;5066959;28;20040;-63
2024/01/22 10:06:44;;;;;;;24.30;8.18;;;9.60;99.90;;;;;;5054263;28;20518;-63
2024/01/22 10:09:11;;;;;;;23.67;8.85;;;9.70;99.90;;;;;;5056565;28;20489;-63
2024/01/22 10:11:37;;;;;;;19.08;7.57;;;9.90;99.90;;;;;;5056375;28;20339;-61
2024/01/22 10:14:03;;;;;;;24.17;8.60;;;10.00;99.90;;;;;;5055579;28;20049;-63
2024/01/22 10:16:29;;;;;;;26.95;8.10;;;10.10;99.90;;;;;;5065518;28;20040;-63
2024/01/22 10:19:07;;;;;;;20.42;7.93;;;10.20;99.90;;;;;;5053286;28;20186;-64
2024/01/22 10:21:37;;;;;;;22.38;9.25;;;10.40;99.90;;;;;;5064449;28;20044;-63
2024/01/22 10:24:08;;;;;;;21.83;6.25;;;10.50;99.90;;;;;;5058168;28;20040;-63
2024/01/22 10:26:34;;;;;;;29.23;10.23;;;10.70;99.90;;;;;;5056044;28;20056;-63
2024/01/22 10:29:17;;;;;;;17.85;6.65;;;;;;;;;;5050985;28;20365;-65
2024/01/22 10:32:02;;;;;;;20.83;7.30;;;10.80;99.90;;;;;;5055013;28;20052;-63
2024/01/22 10:34:30;;;;;;;20.00;7.05;;;11.10;99.90;;;;;;5036700;28;20544;-63
2024/01/22 10:37:09;;;;;;;21.08;7.95;;;;;;;;;;5036057;28;20485;-63
2024/01/22 10:39:37;;;;;;;23.55;8.18;;;11.40;99.90;;;;;;5048512;28;20054;-63
2024/01/22 10:42:17;;;;;;;26.08;7.63;;;11.50;99.90;;;;;;5048139;28;20059;-63
2024/01/22 10:44:45;;;;;;;19.60;7.82;;;11.60;99.90;;;;;;5058551;28;20041;-64
2024/01/22 10:47:12;;;;;;;23.20;6.85;;;11.80;99.90;;;;;;5064796;28;20056;-64
2024/01/22 10:49:38;;;;;;;18.33;6.30;;;11.90;99.90;;;;;;5052382;28;20037;-64
2024/01/22 10:52:05;;;;;;;20.20;6.38;;;12.00;99.90;;;;;;5051875;28;20055;-64
2024/01/22 10:54:33;;;;;;;17.25;6.50;;;12.10;99.90;;;;;;5074760;28;20053;-64
2024/01/22 10:57:04;;;;;;;16.48;7.65;;;12.20;99.90;;;;;;5057562;28;20036;-64
2024/01/22 10:59:39;;;;;;;25.00;7.95;;;12.30;99.90;;;;;;5052594;28;20211;-64
2024/01/22 11:02:06;;;;;;;18.48;6.40;;;12.40;99.90;;;;;;5059349;28;20068;-64
2024/01/22 11:04:44;;;;;;;25.75;7.20;;;12.50;99.90;;;;;;5065904;28;20040;-64
2024/01/22 11:07:11;;;;;;;19.35;7.32;;;12.70;99.90;;;;;;5060278;28;20059;-64
2024/01/22 11:09:38;;;;;;;16.05;7.03;;;12.80;99.90;;;;;;5060854;28;20037;-64
2024/01/22 11:12:09;;;;;;;16.63;5.85;;;13.00;99.90;;;;;;5068565;28;20553;-64
2024/01/22 11:14:37;;;;;;;14.73;6.47;;;13.10;99.90;;;;;;5055885;28;20139;-64
2024/01/22 11:17:06;;;;;;;17.17;5.55;;;13.30;99.90;;;;;;5060475;28;20513;-64
2024/01/22 11:19:32;;;;;;;21.80;6.20;;;;;;;;;;5061047;28;20045;-64
2024/01/22 11:21:58;;;;;;;22.45;7.20;;;13.50;99.90;;;;;;5059462;28;20155;-65
2024/01/22 11:24:24;;;;;;;15.15;5.18;;;14.20;99.90;;;;;;5053356;28;20052;-64
2024/01/22 11:26:51;;;;;;;18.05;5.95;;;15.00;99.90;;;;;;5054906;28;20077;-64
2024/01/22 11:29:26;;;;;;;17.15;6.35;;;;;;;;;;5044788;28;20519;-64
2024/01/22 11:31:53;;;;;;;15.13;5.35;;;16.00;99.90;;;;;;5055348;28;20098;-64
2024/01/22 11:34:38;;;;;;;16.90;5.15;;;;;;;;;;5063694;28;20051;-64
2024/01/22 11:37:04;;;;;;;13.45;5.35;;;;;;;;;;5048587;28;20052;-64
2024/01/22 11:39:35;;;;;;;21.55;6.60;;;;;;;;;;5051095;28;20048;-65
2024/01/22 11:42:25;;;;;;;13.02;5.15;;;;;;;;;;5050141;28;20052;-65
2024/01/22 11:44:51;;;;;;;22.52;6.63;;;;;;;;;;5055475;28;20528;-65
2024/01/22 11:47:22;;;;;;;11.43;4.75;;;;;;;;;;5055262;28;20056;-65
2024/01/22 11:49:48;;;;;;;16.33;5.25;;;;;;;;;;5056095;28;20272;-64
2024/01/22 11:52:18;;;;;;;11.25;4.40;;;;;;;;;;5046810;28;20182;-65
2024/01/22 11:54:55;;;;;;;16.75;6.03;;;;;;;;;;5054330;28;20562;-65
2024/01/22 11:57:21;;;;;;;15.05;5.53;;;17.90;99.90;;;;;;5060795;28;20048;-65
2024/01/22 11:59:57;;;;;;;11.27;5.38;;;;;;;;;;5052723;28;20467;-65
2024/01/22 12:02:24;;;;;;;16.88;4.93;;;;;;;;;;5059406;28;20036;-65
2024/01/22 12:04:58;;;;;;;15.52;5.00;;;;;;;;;;5052411;28;20372;-65
2024/01/22 12:07:35;;;;;;;13.90;5.03;;;;;;;;;;5059695;28;20044;-65
2024/01/22 12:10:01;;;;;;;17.70;4.45;;;;;;;;;;5057613;28;20478;-65
2024/01/22 12:12:27;;;;;;;15.55;5.15;;;;;;;;;;5056354;28;20052;-65
2024/01/22 12:14:54;;;;;;;12.88;4.60;;;;;;;;;;5061094;28;20040;-65
2024/01/22 12:17:20;;;;;;;8.27;4.68;;;;;;;;;;5059341;28;20037;-65
2024/01/22 12:19:48;;;;;;;13.35;5.28;;;;;;;;;;5058553;28;20041;-65
2024/01/22 12:22:14;;;;;;;15.07;5.82;;;22.00;99.90;;;;;;5062915;28;20075;-65
2024/01/22 12:24:40;;;;;;;18.67;5.65;;;24.20;94.40;;;;;;5060409;28;20072;-65
2024/01/22 12:27:06;;;;;;;13.30;4.22;;;24.00;94.10;;;;;;5049689;28;20497;-65
2024/01/22 12:29:32;;;;;;;12.57;5.15;;;24.00;93.90;;;;;;5056270;28;20029;-65
2024/01/22 12:32:02;;;;;;;11.15;4.70;;;23.80;93.90;;;;;;5060257;28;20452;-65
2024/01/22 12:34:28;;;;;;;12.32;4.53;;;23.80;93.60;;;;;;5058482;28;20044;-65
2024/01/22 12:36:55;;;;;;;12.65;4.28;;;23.70;93.80;;;;;;5058863;28;20040;-65
2024/01/22 12:39:21;;;;;;;14.10;4.90;;;23.60;93.60;;;;;;5054515;28;20047;-65
2024/01/22 12:41:47;;;;;;;11.82;4.85;;;23.60;93.70;;;;;;5064661;28;20425;-65
2024/01/22 12:44:16;;;;;;;10.23;3.90;;;23.50;93.70;;;;;;5063944;28;20503;-65
2024/01/22 12:46:41;;;;;;;13.57;4.60;;;23.50;93.50;;;;;;5065225;28;20575;-65
2024/01/22 12:49:07;;;;;;;15.68;6.13;;;23.40;93.60;;;;;;5079572;28;20040;-65
2024/01/22 12:51:33;;;;;;;13.35;4.50;;;23.30;93.30;;;;;;5055715;28;20043;-65
2024/01/22 12:53:59;;;;;;;11.60;4.53;;;23.40;93.30;;;;;;5070047;28;20447;-65
2024/01/22 12:56:25;;;;;;;9.43;4.65;;;23.30;93.20;;;;;;5051443;28;20097;-65
2024/01/22 12:58:52;;;;;;;14.65;5.00;;;23.40;93.20;;;;;;5058264;28;20036;-65
2024/01/22 13:01:18;;;;;;;11.35;4.95;;;23.50;93.20;;;;;;5063933;28;20036;-65